Huvudsida
METAR-TAF:

METAR-TAF

Flygplatser :

Berlevågs flygplats

Berlevågs, Norge

latitud: 70-52N, longitud: 029-02E, höjd: 1 m

Aktuellt väderrapport

Denna rapport gjordes för 49 minuter sedan, klockan 08:50 UTC
Vind 5 kt från ost/nordost
Temperatur 10°C
Fuktighet 50%
Tryck 1018 hPa
Sikt 10 km eller mer
Inga moln under 1 500 m eller inga cumulonimbus

METAR: ENBV 220850Z 06005KT CAVOK 10/M00 Q1018

Tid: 11:39 (09:39 UTC)

Väderprognos

Denna rapport gjordes för 1 timme och 39 minuter sedan, klockan 08:00 UTC
Prognos gäller från 22 kl. 09 UTC till 22 kl. 18 UTC
Vind 8 kt från väst
Sikt 10 km eller mer
Få moln på en höjd av 1500 ft
Spridda moln på en höjd av 3000 ft
lätt regn
Temporärt
från 22 kl. 15 UTC till 22 kl. 18 UTC
Brutna moln på en höjd av 1400 ft

TAF: ENBV 220800Z 2209/2218 26008KT 9999 -RA FEW015 SCT030 TEMPO 2215/2218 BKN014

Aktuella väderrapporter och prognoser från 4000 flygplatser (METAR- och TAF-rapporter).

De tillgängliga stationerna syns som gula och röda prickar på kartan.

För musen över prickarna för att se namnen på stationerna.

Klicka sedan för att få väderrapporter och prognoser.

För att ändra kartan: Klicka på de gröna knapparna med ett svart kors på för att zooma in; den gröna knappen med ett streck på för att zooma ut; eller på de gröna pilarna för angränsande kartor.


METAR-TAF: